createdAt,value
2023-01-05T00:00:23.009Z,0.00
2023-01-05T00:01:22.963Z,0.00
2023-01-05T00:02:24.572Z,0.00
2023-01-05T00:03:23.093Z,0.00
2023-01-05T00:04:23.347Z,0.00
2023-01-05T00:05:22.930Z,0.00
2023-01-05T00:06:23.303Z,0.00
2023-01-05T00:07:23.343Z,0.00
2023-01-05T00:08:23.142Z,0.00
2023-01-05T00:09:23.037Z,0.00
2023-01-05T00:10:22.948Z,0.00
2023-01-05T00:11:22.908Z,0.00
2023-01-05T00:12:22.833Z,0.00
2023-01-05T00:13:22.857Z,0.00
2023-01-05T00:14:22.966Z,0.00
2023-01-05T00:15:22.969Z,0.00
2023-01-05T00:16:22.979Z,0.00
2023-01-05T00:17:22.879Z,0.00
2023-01-05T00:18:22.789Z,0.00
2023-01-05T00:19:22.893Z,0.00
2023-01-05T00:20:22.745Z,0.00
2023-01-05T00:21:22.741Z,0.00
2023-01-05T00:22:22.701Z,0.00
2023-01-05T00:23:22.700Z,0.00
2023-01-05T00:24:22.820Z,0.00
2023-01-05T00:25:22.698Z,0.00
2023-01-05T00:26:22.671Z,0.00
2023-01-05T00:27:22.659Z,0.00
2023-01-05T00:28:22.634Z,0.00
2023-01-05T00:29:22.653Z,0.00
2023-01-05T00:30:22.610Z,0.00
2023-01-05T00:31:22.642Z,0.00
2023-01-05T00:32:22.660Z,0.00
2023-01-05T00:33:22.597Z,0.00
2023-01-05T00:34:22.560Z,0.00
2023-01-05T00:35:22.558Z,0.00
2023-01-05T00:36:22.540Z,0.00
2023-01-05T00:37:22.550Z,0.00
2023-01-05T00:38:22.553Z,0.00
2023-01-05T00:39:22.543Z,0.00
2023-01-05T00:40:22.568Z,0.00
2023-01-05T00:41:22.503Z,0.00
2023-01-05T00:42:22.475Z,0.00
2023-01-05T00:43:22.492Z,0.00
2023-01-05T00:44:22.468Z,0.00
2023-01-05T00:45:22.492Z,0.00
2023-01-05T00:46:22.466Z,0.00
2023-01-05T00:47:22.527Z,0.00
2023-01-05T00:48:22.430Z,0.00
2023-01-05T00:49:22.429Z,0.00
2023-01-05T00:50:22.462Z,0.00
2023-01-05T00:51:22.412Z,0.00
2023-01-05T00:52:22.418Z,0.00
2023-01-05T00:53:22.430Z,0.00
2023-01-05T00:54:22.346Z,0.00
2023-01-05T00:55:22.386Z,0.00
2023-01-05T00:56:22.340Z,0.00
2023-01-05T00:57:22.468Z,0.00
2023-01-05T00:58:22.309Z,0.00
2023-01-05T00:59:22.347Z,0.00
2023-01-05T01:00:22.299Z,0.00
2023-01-05T01:01:22.437Z,0.00
2023-01-05T01:02:22.592Z,0.00
2023-01-05T01:03:22.495Z,0.00
2023-01-05T01:04:22.328Z,0.00
2023-01-05T01:05:22.270Z,0.00
2023-01-05T01:06:22.216Z,0.00
2023-01-05T01:07:23.246Z,0.00
2023-01-05T01:08:22.215Z,0.00
2023-01-05T01:09:22.208Z,0.00
2023-01-05T01:10:22.181Z,0.00
2023-01-05T01:11:22.530Z,0.00
2023-01-05T01:12:22.190Z,0.00
2023-01-05T01:13:22.170Z,0.00
2023-01-05T01:14:22.164Z,0.00
2023-01-05T01:15:22.138Z,0.00
2023-01-05T01:16:22.202Z,0.00
2023-01-05T01:17:22.184Z,0.00
2023-01-05T01:18:22.082Z,0.00
2023-01-05T01:19:22.082Z,0.00
2023-01-05T01:20:22.090Z,0.00
2023-01-05T01:21:22.070Z,0.00
2023-01-05T01:22:22.078Z,0.00
2023-01-05T01:23:22.062Z,0.00
2023-01-05T01:24:22.010Z,0.00
2023-01-05T01:25:22.019Z,0.00
2023-01-05T01:26:21.995Z,0.00
2023-01-05T01:27:22.028Z,0.00
2023-01-05T01:28:22.018Z,0.00
2023-01-05T01:29:22.034Z,0.00
2023-01-05T01:30:21.937Z,0.00
2023-01-05T01:31:22.007Z,0.00
2023-01-05T01:32:21.933Z,0.00
2023-01-05T01:33:22.073Z,0.00
2023-01-05T01:34:21.917Z,0.00
2023-01-05T01:35:21.984Z,0.00
2023-01-05T01:36:21.920Z,0.00
2023-01-05T01:37:21.921Z,0.00
2023-01-05T01:38:21.865Z,0.00
2023-01-05T01:39:21.874Z,0.00
2023-01-05T01:40:21.848Z,0.00
2023-01-05T01:41:21.845Z,0.00
2023-01-05T01:42:21.827Z,0.00
2023-01-05T01:43:21.825Z,0.00
2023-01-05T01:44:21.797Z,0.00
2023-01-05T01:45:21.837Z,0.00
2023-01-05T01:46:21.793Z,0.00
2023-01-05T01:47:21.768Z,0.00
2023-01-05T01:48:21.791Z,0.00
2023-01-05T01:49:21.777Z,0.00
2023-01-05T01:50:21.732Z,0.00
2023-01-05T01:51:21.793Z,0.00
2023-01-05T01:52:21.919Z,0.00
2023-01-05T01:53:21.725Z,0.00
2023-01-05T01:54:22.460Z,0.00
2023-01-05T01:55:21.709Z,0.00
2023-01-05T01:56:21.676Z,0.00
2023-01-05T01:57:21.665Z,0.00
2023-01-05T01:58:21.624Z,0.00
2023-01-05T01:59:21.665Z,0.00
2023-01-05T02:00:21.693Z,0.00
2023-01-05T02:01:21.741Z,0.00
2023-01-05T02:02:21.715Z,0.00
2023-01-05T02:03:21.648Z,0.00
2023-01-05T02:04:21.696Z,0.00
2023-01-05T02:05:21.556Z,0.00
2023-01-05T02:06:21.615Z,0.00
2023-01-05T02:07:21.588Z,0.00
2023-01-05T02:08:21.600Z,0.00
2023-01-05T02:09:21.517Z,0.00
2023-01-05T02:10:21.539Z,0.00
2023-01-05T02:11:21.540Z,0.00
2023-01-05T02:12:21.575Z,0.00
2023-01-05T02:13:24.946Z,0.00
2023-01-05T02:14:22.637Z,0.00
2023-01-05T02:15:21.468Z,0.00
2023-01-05T02:16:21.589Z,0.00
2023-01-05T02:17:21.463Z,0.00
2023-01-05T02:18:21.474Z,0.00
2023-01-05T02:19:21.571Z,0.00
2023-01-05T02:20:21.405Z,0.00
2023-01-05T02:21:21.388Z,0.00
2023-01-05T02:22:21.375Z,0.00
2023-01-05T02:23:21.390Z,0.00
2023-01-05T02:24:21.407Z,0.00
2023-01-05T02:25:21.930Z,0.00
2023-01-05T02:26:21.380Z,0.00
2023-01-05T02:27:21.316Z,0.00
2023-01-05T02:28:21.355Z,0.00
2023-01-05T02:29:21.357Z,0.00
2023-01-05T02:30:21.286Z,0.00
2023-01-05T02:31:21.320Z,0.00
2023-01-05T02:32:21.264Z,0.00
2023-01-05T02:33:21.239Z,0.00
2023-01-05T02:34:21.285Z,0.00
2023-01-05T02:35:21.254Z,0.00
2023-01-05T02:36:28.128Z,0.00
2023-01-05T02:37:22.223Z,0.00
2023-01-05T02:38:21.246Z,0.00
2023-01-05T02:39:21.200Z,0.00
2023-01-05T02:40:21.196Z,0.00
2023-01-05T02:41:21.240Z,0.00
2023-01-05T02:42:21.205Z,0.00
2023-01-05T02:43:21.125Z,0.00
2023-01-05T02:44:21.145Z,0.00
2023-01-05T02:45:21.132Z,0.00
2023-01-05T02:46:21.140Z,0.00
2023-01-05T02:47:21.088Z,0.00
2023-01-05T02:48:21.088Z,0.00
2023-01-05T02:49:21.056Z,0.00
2023-01-05T02:50:21.081Z,0.00
2023-01-05T02:51:21.043Z,0.00
2023-01-05T02:52:21.048Z,0.00
2023-01-05T02:53:21.012Z,0.00
2023-01-05T02:54:21.025Z,0.00
2023-01-05T02:55:21.235Z,0.00
2023-01-05T02:56:21.064Z,0.00
2023-01-05T02:57:21.043Z,0.00
2023-01-05T02:58:20.984Z,0.00
2023-01-05T02:59:20.944Z,0.00
2023-01-05T03:00:20.978Z,0.00
2023-01-05T03:01:21.007Z,0.00
2023-01-05T03:02:21.111Z,0.00
2023-01-05T03:03:20.972Z,0.00
2023-01-05T03:04:20.911Z,0.00
2023-01-05T03:05:20.895Z,0.00
2023-01-05T03:06:20.897Z,0.00
2023-01-05T03:07:20.885Z,0.00
2023-01-05T03:08:20.876Z,0.00
2023-01-05T03:09:20.841Z,0.00
2023-01-05T03:10:20.857Z,0.00
2023-01-05T03:11:20.844Z,0.00
2023-01-05T03:12:20.835Z,0.00
2023-01-05T03:13:20.822Z,0.00
2023-01-05T03:14:20.802Z,0.00
2023-01-05T03:15:21.151Z,0.00
2023-01-05T03:16:21.104Z,0.00
2023-01-05T03:17:20.774Z,0.00
2023-01-05T03:18:20.782Z,0.00
2023-01-05T03:19:20.727Z,0.00
2023-01-05T03:20:20.725Z,0.00
2023-01-05T03:21:20.693Z,0.00
2023-01-05T03:22:20.709Z,0.00
2023-01-05T03:23:20.693Z,0.00
2023-01-05T03:24:20.683Z,0.00
2023-01-05T03:25:20.643Z,0.00
2023-01-05T03:26:20.664Z,0.00
2023-01-05T03:27:20.632Z,0.00
2023-01-05T03:28:20.645Z,0.00
2023-01-05T03:29:20.608Z,0.00
2023-01-05T03:30:20.633Z,0.00
2023-01-05T03:31:20.628Z,0.00
2023-01-05T03:32:20.599Z,0.00
2023-01-05T03:33:20.564Z,0.00
2023-01-05T03:34:20.574Z,0.00
2023-01-05T03:35:20.562Z,0.00
2023-01-05T03:36:20.545Z,0.00
2023-01-05T03:37:20.535Z,0.00
2023-01-05T03:38:20.524Z,0.00
2023-01-05T03:39:20.501Z,0.00
2023-01-05T03:40:20.563Z,0.00
2023-01-05T03:41:20.492Z,0.00
2023-01-05T03:42:20.498Z,0.00
2023-01-05T03:43:20.453Z,0.00
2023-01-05T03:44:20.464Z,0.00
2023-01-05T03:45:20.432Z,0.00
2023-01-05T03:46:20.476Z,0.00
2023-01-05T03:47:20.411Z,0.00
2023-01-05T03:48:20.413Z,0.00
2023-01-05T03:49:20.394Z,0.00
2023-01-05T03:50:20.427Z,0.00
2023-01-05T03:51:20.362Z,0.00
2023-01-05T03:52:20.391Z,0.00
2023-01-05T03:53:20.352Z,0.00
2023-01-05T03:54:20.353Z,0.00
2023-01-05T03:55:20.330Z,0.00
2023-01-05T03:56:20.358Z,0.00
2023-01-05T03:57:20.612Z,0.00
2023-01-05T03:58:20.329Z,0.00
2023-01-05T03:59:20.274Z,0.00
2023-01-05T04:00:20.283Z,0.00
2023-01-05T04:01:20.308Z,0.00
2023-01-05T04:02:20.603Z,0.00
2023-01-05T04:03:20.268Z,0.00
2023-01-05T04:04:20.252Z,0.00
2023-01-05T04:05:20.203Z,0.00
2023-01-05T04:06:20.212Z,0.00
2023-01-05T04:07:20.191Z,0.00
2023-01-05T04:08:20.195Z,0.00
2023-01-05T04:09:20.180Z,0.00
2023-01-05T04:10:20.183Z,0.00
2023-01-05T04:11:20.140Z,0.00
2023-01-05T04:12:20.157Z,0.00
2023-01-05T04:13:20.120Z,0.00
2023-01-05T04:14:20.151Z,0.00
2023-01-05T04:15:20.107Z,0.00
2023-01-05T04:16:20.157Z,0.00
2023-01-05T04:17:20.342Z,0.00
2023-01-05T04:18:20.088Z,0.00
2023-01-05T04:19:20.063Z,0.00
2023-01-05T04:20:20.066Z,0.00
2023-01-05T04:21:20.031Z,0.00
2023-01-05T04:22:26.841Z,0.00
2023-01-05T04:23:21.011Z,0.00
2023-01-05T04:24:20.027Z,0.00
2023-01-05T04:25:19.992Z,0.00
2023-01-05T04:26:20.008Z,0.00
2023-01-05T04:27:20.401Z,0.00
2023-01-05T04:28:19.968Z,0.00
2023-01-05T04:29:19.959Z,0.00
2023-01-05T04:30:19.962Z,0.00
2023-01-05T04:31:19.989Z,0.00
2023-01-05T04:32:19.943Z,0.00
2023-01-05T04:33:19.910Z,0.00
2023-01-05T04:34:19.923Z,0.00
2023-01-05T04:35:19.881Z,0.00
2023-01-05T04:36:19.903Z,0.00
2023-01-05T04:37:19.888Z,0.00
2023-01-05T04:38:19.880Z,0.00
2023-01-05T04:39:19.831Z,0.00
2023-01-05T04:40:19.855Z,0.00
2023-01-05T04:41:19.820Z,0.00
2023-01-05T04:42:19.836Z,0.00
2023-01-05T04:43:19.787Z,0.00
2023-01-05T04:44:19.826Z,0.00
2023-01-05T04:45:19.763Z,0.00
2023-01-05T04:46:19.824Z,0.00
2023-01-05T04:47:19.750Z,0.00
2023-01-05T04:48:19.764Z,0.00
2023-01-05T04:49:19.720Z,0.00
2023-01-05T04:50:19.750Z,0.00
2023-01-05T04:51:19.704Z,0.00
2023-01-05T04:52:19.710Z,0.00
2023-01-05T04:53:19.673Z,0.00
2023-01-05T04:54:19.703Z,0.00
2023-01-05T04:55:19.653Z,0.00
2023-01-05T04:56:19.674Z,0.00
2023-01-05T04:57:19.643Z,0.00
2023-01-05T04:58:19.829Z,0.00
2023-01-05T04:59:19.630Z,0.00
2023-01-05T05:00:19.636Z,0.00
2023-01-05T05:01:19.706Z,0.00
2023-01-05T05:02:19.654Z,0.00
2023-01-05T05:03:19.596Z,0.00
2023-01-05T05:04:19.581Z,0.00
2023-01-05T05:05:19.584Z,0.00
2023-01-05T05:06:19.568Z,0.00
2023-01-05T05:07:19.566Z,0.00
2023-01-05T05:08:19.530Z,0.00
2023-01-05T05:09:19.503Z,0.00
2023-01-05T05:10:19.511Z,0.00
2023-01-05T05:11:19.486Z,0.00
2023-01-05T05:12:19.704Z,0.00
2023-01-05T05:13:19.466Z,0.00
2023-01-05T05:14:19.468Z,0.00
2023-01-05T05:15:19.429Z,0.00
2023-01-05T05:16:19.513Z,0.00
2023-01-05T05:17:19.467Z,0.00
2023-01-05T05:18:19.651Z,0.00
2023-01-05T05:19:19.554Z,0.00
2023-01-05T05:20:19.404Z,0.00
2023-01-05T05:21:19.382Z,0.00
2023-01-05T05:22:19.379Z,0.00
2023-01-05T05:23:19.353Z,0.00
2023-01-05T05:24:19.368Z,0.00
2023-01-05T05:25:19.341Z,0.00
2023-01-05T05:26:19.476Z,0.00
2023-01-05T05:27:19.301Z,0.00
2023-01-05T05:28:19.311Z,0.00
2023-01-05T05:29:19.321Z,0.00
2023-01-05T05:30:19.309Z,0.00
2023-01-05T05:31:19.259Z,0.00
2023-01-05T05:32:19.260Z,0.00
2023-01-05T05:33:19.223Z,0.00
2023-01-05T05:34:19.244Z,0.00
2023-01-05T05:35:19.216Z,0.00
2023-01-05T05:36:19.236Z,0.00
2023-01-05T05:37:19.203Z,0.00
2023-01-05T05:38:19.228Z,0.00
2023-01-05T05:39:19.479Z,0.00
2023-01-05T05:40:19.179Z,0.00
2023-01-05T05:41:19.163Z,0.00
2023-01-05T05:42:19.159Z,0.00
2023-01-05T05:43:19.140Z,0.00
2023-01-05T05:44:19.150Z,0.00
2023-01-05T05:45:19.125Z,0.00
2023-01-05T05:46:19.170Z,0.00
2023-01-05T05:47:19.090Z,0.00
2023-01-05T05:48:19.118Z,0.00
2023-01-05T05:49:19.061Z,0.00
2023-01-05T05:50:19.069Z,0.00
2023-01-05T05:51:19.042Z,0.00
2023-01-05T05:52:19.068Z,0.00
2023-01-05T05:53:19.031Z,0.00
2023-01-05T05:54:19.027Z,0.00
2023-01-05T05:55:18.988Z,0.00
2023-01-05T05:56:19.015Z,0.00
2023-01-05T05:57:19.416Z,0.00
2023-01-05T05:58:18.996Z,0.00
2023-01-05T05:59:19.511Z,0.00
2023-01-05T06:00:19.318Z,0.00
2023-01-05T06:01:18.936Z,0.00
2023-01-05T06:02:19.030Z,0.00
2023-01-05T06:03:18.992Z,0.00
2023-01-05T06:04:18.920Z,0.00
2023-01-05T06:05:18.913Z,0.00
2023-01-05T06:06:18.899Z,0.00
2023-01-05T06:07:18.879Z,0.00
2023-01-05T06:08:18.887Z,0.00
2023-01-05T06:09:18.861Z,0.00
2023-01-05T06:10:18.864Z,0.00
2023-01-05T06:11:18.842Z,0.00
2023-01-05T06:12:18.847Z,0.00
2023-01-05T06:13:18.857Z,0.00
2023-01-05T06:14:18.815Z,0.00
2023-01-05T06:15:18.776Z,0.00
2023-01-05T06:16:18.839Z,0.00
2023-01-05T06:17:18.748Z,0.00
2023-01-05T06:18:18.760Z,0.00
2023-01-05T06:19:18.745Z,0.00
2023-01-05T06:20:18.739Z,0.00
2023-01-05T06:21:18.733Z,0.00
2023-01-05T06:22:18.704Z,0.00
2023-01-05T06:23:18.725Z,0.00
2023-01-05T06:24:18.676Z,0.00
2023-01-05T06:25:18.685Z,0.00
2023-01-05T06:26:18.680Z,0.00
2023-01-05T06:27:18.674Z,0.00
2023-01-05T06:28:20.471Z,0.00
2023-01-05T06:29:18.814Z,0.00
2023-01-05T06:30:18.664Z,0.00
2023-01-05T06:31:18.652Z,0.00
2023-01-05T06:32:18.585Z,0.00
2023-01-05T06:33:18.680Z,0.00
2023-01-05T06:34:18.567Z,0.00
2023-01-05T06:35:18.575Z,0.00
2023-01-05T06:36:18.552Z,0.00
2023-01-05T06:37:18.575Z,0.00
2023-01-05T06:38:18.536Z,0.00
2023-01-05T06:39:18.535Z,0.00
2023-01-05T06:40:18.566Z,0.00
2023-01-05T06:41:18.601Z,0.00
2023-01-05T06:42:23.177Z,0.00
2023-01-05T06:43:19.483Z,0.00
2023-01-05T06:44:18.457Z,0.00
2023-01-05T06:45:18.476Z,0.00
2023-01-05T06:46:18.449Z,0.00
2023-01-05T06:47:18.537Z,0.00
2023-01-05T06:48:18.416Z,0.00
2023-01-05T06:49:18.456Z,0.00
2023-01-05T06:50:18.419Z,0.00
2023-01-05T06:51:18.553Z,0.00
2023-01-05T06:52:18.374Z,0.00
2023-01-05T06:53:18.393Z,0.00
2023-01-05T06:54:18.417Z,0.00
2023-01-05T06:55:18.373Z,0.00
2023-01-05T06:56:18.328Z,0.00
2023-01-05T06:57:18.336Z,0.00
2023-01-05T06:58:18.327Z,0.00
2023-01-05T06:59:18.487Z,0.00
2023-01-05T07:00:18.560Z,0.00
2023-01-05T07:01:18.438Z,0.00
2023-01-05T07:02:18.317Z,0.00
2023-01-05T07:03:18.731Z,0.00
2023-01-05T07:04:18.330Z,0.00
2023-01-05T07:05:18.290Z,0.00
2023-01-05T07:06:18.261Z,0.00
2023-01-05T07:07:18.248Z,4.00
2023-01-05T07:08:18.203Z,4.00
2023-01-05T07:09:18.205Z,0.00
2023-01-05T07:10:18.189Z,0.00
2023-01-05T07:11:18.187Z,4.00
2023-01-05T07:12:18.194Z,0.00
2023-01-05T07:13:18.190Z,4.00
2023-01-05T07:14:18.168Z,8.00
2023-01-05T07:15:18.143Z,8.00
2023-01-05T07:16:18.150Z,8.00
2023-01-05T07:17:18.137Z,4.00
2023-01-05T07:18:18.089Z,8.00
2023-01-05T07:19:18.102Z,12.00
2023-01-05T07:20:18.065Z,12.00
2023-01-05T07:21:18.145Z,16.00
2023-01-05T07:22:18.049Z,16.00
2023-01-05T07:23:18.063Z,16.00
2023-01-05T07:24:18.024Z,20.00
2023-01-05T07:25:18.024Z,20.00
2023-01-05T07:26:18.017Z,24.00
2023-01-05T07:27:18.225Z,36.00
2023-01-05T07:28:17.963Z,48.00
2023-01-05T07:29:18.215Z,44.00
2023-01-05T07:30:17.985Z,32.00
2023-01-05T07:31:17.994Z,24.00
2023-01-05T07:32:17.931Z,28.00
2023-01-05T07:33:17.939Z,36.00
2023-01-05T07:34:17.909Z,40.00
2023-01-05T07:35:17.958Z,52.00
2023-01-05T07:36:17.907Z,48.00
2023-01-05T07:37:17.896Z,48.00
2023-01-05T07:38:17.880Z,52.00
2023-01-05T07:39:17.887Z,44.00
2023-01-05T07:40:17.849Z,84.00
2023-01-05T07:41:18.073Z,84.00
2023-01-05T07:42:17.970Z,116.00
2023-01-05T07:43:17.827Z,164.00
2023-01-05T07:44:17.792Z,164.00
2023-01-05T07:45:17.822Z,160.00
2023-01-05T07:46:17.828Z,156.00
2023-01-05T07:47:17.801Z,164.00
2023-01-05T07:48:23.235Z,188.00
2023-01-05T07:49:18.762Z,180.00
2023-01-05T07:50:17.722Z,192.00
2023-01-05T07:51:17.733Z,168.00
2023-01-05T07:52:17.733Z,160.00
2023-01-05T07:53:17.745Z,136.00
2023-01-05T07:54:17.705Z,160.00
2023-01-05T07:55:17.800Z,112.00
2023-01-05T07:56:17.685Z,88.00
2023-01-05T07:57:17.750Z,112.00
2023-01-05T07:58:17.644Z,132.00
2023-01-05T07:59:17.653Z,132.00
2023-01-05T08:00:17.640Z,212.00
2023-01-05T08:01:17.892Z,248.00
2023-01-05T08:02:18.130Z,212.00
2023-01-05T08:03:17.924Z,220.00
2023-01-05T08:04:17.646Z,220.00
2023-01-05T08:05:17.640Z,204.00
2023-01-05T08:06:17.631Z,244.00
2023-01-05T08:07:17.591Z,232.00
2023-01-05T08:08:23.922Z,188.00
2023-01-05T08:09:18.541Z,236.00
2023-01-05T08:10:17.571Z,268.00
2023-01-05T08:11:17.662Z,320.00
2023-01-05T08:12:17.493Z,292.00
2023-01-05T08:13:17.523Z,184.00
2023-01-05T08:14:17.470Z,164.00
2023-01-05T08:15:17.476Z,220.00
2023-01-05T08:16:17.482Z,288.00
2023-01-05T08:17:17.471Z,264.00
2023-01-05T08:18:17.433Z,236.00
2023-01-05T08:19:17.431Z,232.00
2023-01-05T08:20:17.395Z,200.00
2023-01-05T08:21:17.440Z,200.00
2023-01-05T08:22:17.407Z,216.00
2023-01-05T08:23:25.551Z,212.00
2023-01-05T08:24:18.363Z,184.00
2023-01-05T08:25:17.375Z,152.00
2023-01-05T08:26:17.332Z,156.00
2023-01-05T08:27:17.447Z,124.00
2023-01-05T08:28:17.320Z,132.00
2023-01-05T08:29:17.322Z,172.00
2023-01-05T08:30:17.326Z,264.00
2023-01-05T08:31:17.356Z,244.00
2023-01-05T08:32:17.295Z,324.00
2023-01-05T08:33:17.301Z,336.00
2023-01-05T08:34:17.266Z,332.00
2023-01-05T08:35:17.282Z,224.00
2023-01-05T08:36:17.246Z,180.00
2023-01-05T08:37:17.265Z,248.00
2023-01-05T08:38:17.222Z,280.00
2023-01-05T08:39:17.215Z,240.00
2023-01-05T08:40:17.199Z,300.00
2023-01-05T08:41:17.218Z,252.00
2023-01-05T08:42:17.161Z,356.00
2023-01-05T08:43:17.163Z,448.00
2023-01-05T08:44:17.132Z,444.00
2023-01-05T08:45:17.162Z,372.00
2023-01-05T08:46:17.154Z,432.00
2023-01-05T08:47:18.450Z,532.00
2023-01-05T08:48:17.109Z,600.00
2023-01-05T08:49:17.106Z,680.00
2023-01-05T08:50:17.093Z,376.00
2023-01-05T08:51:17.074Z,380.00
2023-01-05T08:52:17.160Z,464.00
2023-01-05T08:53:17.086Z,592.00
2023-01-05T08:54:17.022Z,704.00
2023-01-05T08:55:17.045Z,576.00
2023-01-05T08:56:17.007Z,464.00
2023-01-05T08:57:17.022Z,516.00
2023-01-05T08:58:16.987Z,488.00
2023-01-05T08:59:17.000Z,480.00
2023-01-05T09:00:16.949Z,824.00
2023-01-05T09:01:17.136Z,872.00
2023-01-05T09:02:23.374Z,1004.00
2023-01-05T09:03:17.985Z,812.00
2023-01-05T09:04:17.215Z,756.00
2023-01-05T09:05:16.931Z,1048.00
2023-01-05T09:06:16.933Z,920.00
2023-01-05T09:07:16.921Z,756.00
2023-01-05T09:08:16.869Z,652.00
2023-01-05T09:09:16.875Z,720.00
2023-01-05T09:10:16.844Z,620.00
2023-01-05T09:11:16.859Z,504.00
2023-01-05T09:12:17.060Z,532.00
2023-01-05T09:13:17.176Z,724.00
2023-01-05T09:14:16.810Z,608.00
2023-01-05T09:15:16.813Z,756.00
2023-01-05T09:16:21.395Z,652.00
2023-01-05T09:17:17.848Z,660.00
2023-01-05T09:18:16.813Z,724.00
2023-01-05T09:19:16.763Z,912.00
2023-01-05T09:20:16.731Z,804.00
2023-01-05T09:21:16.750Z,808.00
2023-01-05T09:22:16.714Z,632.00
2023-01-05T09:23:16.729Z,680.00
2023-01-05T09:24:16.699Z,572.00
2023-01-05T09:25:16.724Z,488.00
2023-01-05T09:26:16.670Z,620.00
2023-01-05T09:27:16.678Z,776.00
2023-01-05T09:28:16.641Z,1240.00
2023-01-05T09:29:16.673Z,1016.00
2023-01-05T09:30:16.640Z,1172.00
2023-01-05T09:31:16.697Z,1252.00
2023-01-05T09:32:16.630Z,1284.00
2023-01-05T09:33:16.697Z,1412.00
2023-01-05T09:34:16.613Z,1308.00
2023-01-05T09:35:16.589Z,828.00
2023-01-05T09:36:16.593Z,852.00
2023-01-05T09:37:16.597Z,1076.00
2023-01-05T09:38:16.544Z,1220.00
2023-01-05T09:39:16.544Z,1160.00
2023-01-05T09:40:16.537Z,832.00
2023-01-05T09:41:16.537Z,768.00
2023-01-05T09:42:16.500Z,904.00
2023-01-05T09:43:16.551Z,1044.00
2023-01-05T09:44:16.485Z,1112.00
2023-01-05T09:45:16.477Z,992.00
2023-01-05T09:46:16.499Z,1016.00
2023-01-05T09:47:16.476Z,944.00
2023-01-05T09:48:16.440Z,972.00
2023-01-05T09:49:16.449Z,768.00
2023-01-05T09:50:16.398Z,648.00
2023-01-05T09:51:16.408Z,636.00
2023-01-05T09:52:16.379Z,504.00
2023-01-05T09:53:16.408Z,468.00
2023-01-05T09:54:16.395Z,580.00
2023-01-05T09:55:16.368Z,676.00
2023-01-05T09:56:42.005Z,960.00
2023-01-05T09:57:17.339Z,1064.00
2023-01-05T09:58:16.308Z,1228.00
2023-01-05T09:59:16.338Z,1060.00
2023-01-05T10:00:16.322Z,1120.00
2023-01-05T10:01:16.365Z,1068.00
2023-01-05T10:02:16.295Z,848.00
2023-01-05T10:03:44.792Z,632.00
2023-01-05T10:04:17.363Z,740.00
2023-01-05T10:05:16.398Z,796.00
2023-01-05T10:06:16.274Z,704.00
2023-01-05T10:07:16.232Z,888.00
2023-01-05T10:08:16.208Z,728.00
2023-01-05T10:09:16.215Z,848.00
2023-01-05T10:10:16.197Z,868.00
2023-01-05T10:11:16.197Z,792.00
2023-01-05T10:12:16.169Z,800.00
2023-01-05T10:13:16.179Z,964.00
2023-01-05T10:14:16.271Z,748.00
2023-01-05T10:15:16.180Z,668.00
2023-01-05T10:16:16.297Z,672.00
2023-01-05T10:17:40.508Z,732.00
2023-01-05T10:18:17.118Z,776.00
2023-01-05T10:19:16.109Z,840.00
2023-01-05T10:20:16.102Z,636.00
2023-01-05T10:21:16.079Z,588.00
2023-01-05T10:22:16.060Z,612.00
2023-01-05T10:23:16.059Z,848.00
2023-01-05T10:24:16.061Z,1292.00
2023-01-05T10:25:16.103Z,1284.00
2023-01-05T10:26:16.003Z,1020.00
2023-01-05T10:27:25.119Z,1000.00
2023-01-05T10:28:16.996Z,1072.00
2023-01-05T10:29:15.999Z,1164.00
2023-01-05T10:30:15.959Z,1396.00
2023-01-05T10:31:16.055Z,1084.00
2023-01-05T10:32:15.935Z,1052.00
2023-01-05T10:33:39.625Z,1388.00
2023-01-05T10:34:16.925Z,1548.00
2023-01-05T10:35:42.101Z,1648.00
2023-01-05T10:36:27.957Z,1816.00
2023-01-05T10:37:16.883Z,1956.00
2023-01-05T10:38:15.969Z,1916.00
2023-01-05T10:39:15.912Z,1480.00
2023-01-05T10:40:16.014Z,1272.00
2023-01-05T10:41:15.847Z,1448.00
2023-01-05T10:42:15.845Z,1536.00
2023-01-05T10:43:15.836Z,1808.00
2023-01-05T10:44:15.852Z,1860.00
2023-01-05T10:45:15.796Z,1564.00
2023-01-05T10:46:39.916Z,2008.00
2023-01-05T10:47:16.858Z,2080.00
2023-01-05T10:48:15.780Z,2096.00
2023-01-05T10:49:15.760Z,2156.00
2023-01-05T10:50:15.758Z,2080.00
2023-01-05T10:51:15.718Z,1992.00
2023-01-05T10:52:15.747Z,1416.00
2023-01-05T10:53:15.706Z,1640.00
2023-01-05T10:54:15.706Z,1608.00
2023-01-05T10:55:15.678Z,1656.00
2023-01-05T10:56:15.677Z,1816.00
2023-01-05T10:57:15.671Z,1236.00
2023-01-05T10:58:15.676Z,1424.00
2023-01-05T10:59:15.746Z,1072.00
2023-01-05T11:00:15.667Z,1052.00
2023-01-05T11:01:15.764Z,1380.00
2023-01-05T11:02:15.714Z,1320.00
2023-01-05T11:03:15.647Z,1444.00
2023-01-05T11:04:30.558Z,1828.00
2023-01-05T11:05:16.607Z,1856.00
2023-01-05T11:06:15.576Z,1348.00
2023-01-05T11:07:15.567Z,1400.00
2023-01-05T11:08:15.727Z,1028.00
2023-01-05T11:09:21.630Z,1084.00
2023-01-05T11:10:16.559Z,1328.00
2023-01-05T11:11:15.800Z,1208.00
2023-01-05T11:12:15.543Z,1376.00
2023-01-05T11:13:15.562Z,1704.00
2023-01-05T11:14:15.557Z,1684.00
2023-01-05T11:15:15.565Z,1456.00
2023-01-05T11:16:15.769Z,1636.00
2023-01-05T11:17:15.465Z,1388.00
2023-01-05T11:18:15.482Z,1140.00
2023-01-05T11:19:15.577Z,1912.00
2023-01-05T11:20:15.889Z,1616.00
2023-01-05T11:21:15.794Z,2016.00
2023-01-05T11:22:15.829Z,2148.00
2023-01-05T11:23:15.389Z,1840.00
2023-01-05T11:24:15.396Z,1544.00
2023-01-05T11:25:15.365Z,1316.00
2023-01-05T11:26:15.365Z,1600.00
2023-01-05T11:27:15.868Z,1780.00
2023-01-05T11:28:15.334Z,1312.00
2023-01-05T11:29:15.336Z,1240.00
2023-01-05T11:30:15.403Z,1128.00
2023-01-05T11:31:15.329Z,788.00
2023-01-05T11:32:15.294Z,696.00
2023-01-05T11:33:19.850Z,1112.00
2023-01-05T11:34:16.280Z,1184.00
2023-01-05T11:35:15.245Z,1128.00
2023-01-05T11:36:15.507Z,1044.00
2023-01-05T11:37:15.216Z,1140.00
2023-01-05T11:38:15.226Z,1064.00
2023-01-05T11:39:15.196Z,960.00
2023-01-05T11:40:15.225Z,764.00
2023-01-05T11:41:15.214Z,584.00
2023-01-05T11:42:18.838Z,488.00
2023-01-05T11:43:16.183Z,452.00
2023-01-05T11:44:15.156Z,544.00
2023-01-05T11:45:15.174Z,660.00
2023-01-05T11:46:15.214Z,756.00
2023-01-05T11:47:15.111Z,840.00
2023-01-05T11:48:15.135Z,1104.00
2023-01-05T11:49:15.075Z,1624.00
2023-01-05T11:50:15.135Z,1292.00
2023-01-05T11:51:15.067Z,1412.00
2023-01-05T11:52:15.083Z,1288.00
2023-01-05T11:53:15.055Z,1224.00
2023-01-05T11:54:15.078Z,1400.00
2023-01-05T11:55:15.015Z,1216.00
2023-01-05T11:56:15.236Z,1164.00
2023-01-05T11:57:15.015Z,1240.00
2023-01-05T11:58:15.006Z,1312.00
2023-01-05T11:59:14.964Z,1160.00
2023-01-05T12:00:15.047Z,1040.00
2023-01-05T12:01:14.961Z,980.00
2023-01-05T12:02:15.021Z,1212.00
2023-01-05T12:03:15.738Z,1192.00
2023-01-05T12:04:14.992Z,1816.00
2023-01-05T12:05:14.936Z,1348.00
2023-01-05T12:06:14.944Z,1480.00
2023-01-05T12:07:14.911Z,1300.00
2023-01-05T12:08:14.901Z,1644.00
2023-01-05T12:09:14.906Z,2292.00
2023-01-05T12:10:15.014Z,2244.00
2023-01-05T12:11:15.111Z,2168.00
2023-01-05T12:12:14.847Z,1884.00
2023-01-05T12:13:14.818Z,1484.00
2023-01-05T12:14:14.845Z,1300.00
2023-01-05T12:15:14.788Z,1544.00
2023-01-05T12:16:14.830Z,1236.00
2023-01-05T12:17:14.786Z,1300.00
2023-01-05T12:18:14.775Z,1000.00
2023-01-05T12:19:14.734Z,948.00
2023-01-05T12:20:14.755Z,916.00
2023-01-05T12:21:14.715Z,1220.00
2023-01-05T12:22:14.744Z,1564.00
2023-01-05T12:23:14.727Z,1184.00
2023-01-05T12:24:14.703Z,984.00
2023-01-05T12:25:14.673Z,1124.00
2023-01-05T12:26:14.684Z,1196.00
2023-01-05T12:27:14.723Z,1840.00
2023-01-05T12:28:23.774Z,1300.00
2023-01-05T12:34:15.649Z,904.00
2023-01-05T12:35:14.649Z,1012.00
2023-01-05T12:36:14.632Z,936.00
2023-01-05T12:37:14.571Z,972.00
2023-01-05T12:38:14.587Z,1140.00
2023-01-05T12:39:14.524Z,796.00
2023-01-05T12:40:14.607Z,592.00
2023-01-05T12:41:14.514Z,708.00
2023-01-05T12:42:14.528Z,856.00
2023-01-05T12:43:14.511Z,1004.00
2023-01-05T12:44:14.507Z,1264.00
2023-01-05T12:45:14.519Z,1568.00
2023-01-05T12:46:14.546Z,2152.00
2023-01-05T12:47:14.428Z,2208.00
2023-01-05T12:48:14.430Z,2116.00
2023-01-05T12:49:14.427Z,2116.00
2023-01-05T12:50:14.409Z,2368.00
2023-01-05T12:51:14.388Z,2668.00
2023-01-05T12:52:14.441Z,2740.00
2023-01-05T12:53:14.394Z,2496.00
2023-01-05T12:54:14.378Z,2336.00
2023-01-05T12:55:14.335Z,2528.00
2023-01-05T12:56:14.370Z,2508.00
2023-01-05T12:57:14.337Z,2468.00